createdAt,value
2017-02-13T00:00:08.678Z,74.99
2017-02-13T00:01:09.209Z,74.89
2017-02-13T00:02:09.742Z,75.05
2017-02-13T00:03:10.274Z,74.79
2017-02-13T00:04:10.802Z,75.13
2017-02-13T00:05:11.485Z,74.92
2017-02-13T00:06:12.010Z,74.99
2017-02-13T00:07:12.418Z,74.84
2017-02-13T00:08:13.070Z,74.60
2017-02-13T00:09:13.455Z,74.63
2017-02-13T00:10:13.985Z,74.81
2017-02-13T00:11:14.517Z,74.84
2017-02-13T00:12:15.049Z,75.02
2017-02-13T00:13:15.587Z,75.23
2017-02-13T00:14:16.119Z,75.21
2017-02-13T00:15:16.804Z,75.37
2017-02-13T00:16:17.186Z,75.62
2017-02-13T00:17:17.719Z,75.39
2017-02-13T00:18:18.252Z,75.55
2017-02-13T00:19:18.926Z,75.31
2017-02-13T00:20:19.315Z,75.41
2017-02-13T00:21:19.848Z,75.26
2017-02-13T00:22:20.366Z,75.37
2017-02-13T00:23:20.894Z,75.23
2017-02-13T00:24:21.427Z,75.60
2017-02-13T00:25:22.104Z,75.41
2017-02-13T00:26:22.488Z,75.21
2017-02-13T00:27:23.017Z,75.13
2017-02-13T00:28:23.545Z,75.47
2017-02-13T00:29:24.078Z,75.60
2017-02-13T00:30:24.753Z,75.52
2017-02-13T00:31:25.137Z,75.15
2017-02-13T00:32:25.818Z,74.94
2017-02-13T00:33:26.350Z,75.37
2017-02-13T00:34:26.751Z,75.21
2017-02-13T00:35:27.263Z,75.23
2017-02-13T00:36:27.796Z,75.34
2017-02-13T00:37:28.320Z,74.92
2017-02-13T00:38:28.854Z,75.15
2017-02-13T00:39:29.383Z,75.02
2017-02-13T00:40:29.914Z,75.02
2017-02-13T00:41:30.445Z,75.02
2017-02-13T00:42:31.120Z,75.21
2017-02-13T00:43:31.659Z,75.37
2017-02-13T00:44:32.185Z,75.52
2017-02-13T00:45:32.567Z,75.52
2017-02-13T00:46:33.247Z,75.70
2017-02-13T00:47:33.634Z,75.49
2017-02-13T00:48:34.163Z,75.60
2017-02-13T00:49:34.690Z,75.57
2017-02-13T00:50:35.222Z,75.76
2017-02-13T00:51:35.904Z,75.57
2017-02-13T00:52:36.290Z,75.57
2017-02-13T00:53:36.848Z,75.44
2017-02-13T00:54:37.352Z,75.70
2017-02-13T00:55:37.884Z,75.57
2017-02-13T00:56:38.422Z,75.57
2017-02-13T00:57:38.957Z,75.65
2017-02-13T00:58:39.485Z,75.76
2017-02-13T00:59:40.168Z,75.96
2017-02-13T01:00:40.551Z,75.76
2017-02-13T01:01:41.230Z,75.60
2017-02-13T01:02:41.633Z,75.86
2017-02-13T01:03:42.138Z,75.89
2017-02-13T01:04:42.671Z,75.68
2017-02-13T01:05:43.203Z,75.73
2017-02-13T01:06:43.734Z,76.02
2017-02-13T01:07:44.264Z,75.86
2017-02-13T01:08:44.796Z,75.89
2017-02-13T01:09:45.479Z,75.62
2017-02-13T01:10:45.857Z,75.62
2017-02-13T01:11:46.390Z,75.89
2017-02-13T01:12:47.062Z,75.92
2017-02-13T01:13:47.445Z,75.86
2017-02-13T01:14:48.126Z,75.96
2017-02-13T01:15:48.513Z,76.07
2017-02-13T01:16:49.190Z,75.94
2017-02-13T01:17:49.569Z,75.84
2017-02-13T01:18:50.102Z,75.49
2017-02-13T01:19:50.667Z,75.57
2017-02-13T01:20:51.164Z,75.78
2017-02-13T01:21:51.842Z,75.62
2017-02-13T01:22:52.221Z,75.44
2017-02-13T01:23:52.761Z,75.37
2017-02-13T01:24:53.283Z,75.47
2017-02-13T01:25:53.814Z,75.76
2017-02-13T01:26:54.343Z,75.60
2017-02-13T01:27:54.876Z,75.39
2017-02-13T01:28:55.405Z,75.41
2017-02-13T01:29:55.962Z,75.47
2017-02-13T01:30:56.465Z,75.49
2017-02-13T01:31:56.995Z,75.23
2017-02-13T01:32:57.673Z,75.52
2017-02-13T01:33:58.093Z,75.62
2017-02-13T01:34:58.597Z,75.41
2017-02-13T01:35:59.123Z,75.29
2017-02-13T01:36:59.661Z,75.41
2017-02-13T01:38:00.192Z,75.47
2017-02-13T01:39:00.873Z,75.57
2017-02-13T01:40:01.258Z,75.41
2017-02-13T01:41:01.792Z,75.37
2017-02-13T01:42:02.329Z,75.21
2017-02-13T01:43:03.006Z,75.29
2017-02-13T01:44:03.387Z,75.44
2017-02-13T01:45:03.915Z,75.60
2017-02-13T01:46:04.451Z,75.41
2017-02-13T01:47:05.124Z,75.34
2017-02-13T01:48:05.503Z,75.47
2017-02-13T01:49:06.052Z,75.52
2017-02-13T01:50:06.564Z,75.47
2017-02-13T01:51:07.095Z,75.52
2017-02-13T01:52:07.801Z,75.60
2017-02-13T01:53:08.154Z,75.39
2017-02-13T01:54:08.686Z,75.57
2017-02-13T01:55:09.218Z,75.31
2017-02-13T01:56:09.750Z,75.15
2017-02-13T01:57:10.282Z,75.15
2017-02-13T01:58:10.813Z,75.49
2017-02-13T01:59:11.346Z,75.18
2017-02-13T02:00:11.881Z,75.52
2017-02-13T02:01:12.407Z,75.60
2017-02-13T02:02:12.937Z,75.86
2017-02-13T02:03:13.615Z,75.76
2017-02-13T02:04:14.028Z,75.94
2017-02-13T02:05:14.531Z,75.34
2017-02-13T02:06:15.214Z,75.10
2017-02-13T02:07:15.602Z,75.37
2017-02-13T02:08:16.138Z,75.23
2017-02-13T02:09:16.802Z,75.26
2017-02-13T02:10:17.334Z,75.15
2017-02-13T02:11:17.714Z,74.89
2017-02-13T02:12:18.392Z,74.71
2017-02-13T02:13:18.778Z,74.84
2017-02-13T02:14:19.308Z,74.68
2017-02-13T02:15:19.840Z,74.63
2017-02-13T02:16:20.372Z,74.79
2017-02-13T02:17:20.909Z,74.50
2017-02-13T02:18:21.439Z,74.44
2017-02-13T02:19:21.973Z,74.63
2017-02-13T02:20:22.658Z,74.44
2017-02-13T02:21:23.047Z,74.55
2017-02-13T02:22:23.580Z,74.84
2017-02-13T02:23:24.112Z,74.76
2017-02-13T02:24:24.642Z,74.71
2017-02-13T02:25:25.319Z,74.73
2017-02-13T02:26:25.699Z,74.63
2017-02-13T02:27:26.229Z,74.79
2017-02-13T02:28:26.907Z,74.87
2017-02-13T02:29:27.288Z,74.63
2017-02-13T02:30:27.970Z,74.87
2017-02-13T02:31:28.353Z,74.84
2017-02-13T02:32:29.030Z,74.71
2017-02-13T02:33:29.414Z,74.92
2017-02-13T02:34:29.945Z,75.13
2017-02-13T02:35:30.474Z,75.10
2017-02-13T02:36:31.005Z,75.23
2017-02-13T02:37:31.539Z,75.15
2017-02-13T02:38:32.075Z,75.18
2017-02-13T02:39:32.597Z,75.39
2017-02-13T02:40:33.129Z,75.39
2017-02-13T02:41:33.665Z,74.89
2017-02-13T02:42:34.194Z,75.15
2017-02-13T02:43:34.732Z,75.26
2017-02-13T02:44:35.257Z,75.34
2017-02-13T02:45:35.936Z,75.39
2017-02-13T02:46:36.336Z,75.37
2017-02-13T02:47:36.865Z,75.39
2017-02-13T02:48:37.387Z,75.55
2017-02-13T02:49:37.920Z,75.70
2017-02-13T02:50:38.485Z,75.60
2017-02-13T02:51:38.972Z,75.49
2017-02-13T02:52:39.508Z,75.44
2017-02-13T02:53:40.183Z,75.57
2017-02-13T02:54:40.723Z,75.60
2017-02-13T02:55:41.103Z,75.55
2017-02-13T02:56:41.784Z,75.37
2017-02-13T02:57:42.164Z,75.39
2017-02-13T02:58:42.697Z,75.49
2017-02-13T02:59:43.226Z,75.47
2017-02-13T03:00:43.911Z,75.52
2017-02-13T03:01:44.444Z,75.62
2017-02-13T03:02:44.983Z,75.78
2017-02-13T03:03:45.368Z,75.89
2017-02-13T03:04:45.902Z,75.96
2017-02-13T03:05:46.434Z,76.04
2017-02-13T03:06:47.119Z,75.84
2017-02-13T03:07:47.500Z,75.94
2017-02-13T03:08:48.184Z,76.02
2017-02-13T03:09:48.564Z,76.15
2017-02-13T03:10:49.245Z,76.26
2017-02-13T03:11:49.630Z,76.34
2017-02-13T03:12:50.158Z,76.78
2017-02-13T03:13:50.690Z,76.78
2017-02-13T03:14:55.718Z,77.17
2017-02-13T03:15:51.746Z,77.33
2017-02-13T03:16:52.273Z,77.70
2017-02-13T03:17:52.811Z,77.99
2017-02-13T03:18:53.339Z,78.12
2017-02-13T03:19:53.867Z,78.33
2017-02-13T03:20:54.548Z,78.33
2017-02-13T03:21:54.927Z,78.49
2017-02-13T03:22:55.461Z,78.49
2017-02-13T03:23:55.992Z,78.47
2017-02-13T03:24:56.530Z,78.44
2017-02-13T03:25:57.051Z,78.39
2017-02-13T03:26:57.619Z,78.39
2017-02-13T03:27:58.111Z,79.31
2017-02-13T03:28:58.641Z,79.15
2017-02-13T03:29:59.174Z,79.75
2017-02-13T03:30:59.853Z,80.52
2017-02-13T03:32:00.229Z,80.71
2017-02-13T03:33:00.912Z,80.63
2017-02-13T03:34:01.294Z,81.48
2017-02-13T03:35:01.821Z,81.58
2017-02-13T03:36:02.351Z,81.98
2017-02-13T03:37:02.882Z,81.76
2017-02-13T03:38:03.415Z,82.06
2017-02-13T03:39:03.942Z,82.53
2017-02-13T03:40:04.474Z,83.36
2017-02-13T03:41:05.030Z,83.38
2017-02-13T03:42:05.542Z,83.73
2017-02-13T03:43:06.069Z,83.38
2017-02-13T03:44:06.596Z,83.14
2017-02-13T03:45:07.166Z,84.87
2017-02-13T03:46:07.669Z,85.27
2017-02-13T03:47:08.208Z,85.00
2017-02-13T03:48:08.742Z,85.96
2017-02-13T03:49:09.273Z,85.72
2017-02-13T03:50:09.800Z,85.19
2017-02-13T03:51:10.328Z,84.76
2017-02-13T03:52:11.161Z,85.69
2017-02-13T03:53:11.394Z,87.64
2017-02-13T03:54:11.922Z,88.09
2017-02-13T03:55:12.444Z,86.65
2017-02-13T03:56:13.126Z,86.38
2017-02-13T03:57:13.509Z,84.07
2017-02-13T03:58:14.041Z,84.28
2017-02-13T03:59:14.719Z,86.36
2017-02-13T04:00:15.099Z,85.08
2017-02-13T04:01:15.626Z,85.75
2017-02-13T04:02:16.159Z,85.61
2017-02-13T04:03:16.691Z,85.11
2017-02-13T04:04:17.228Z,84.79
2017-02-13T04:05:17.751Z,85.53
2017-02-13T04:06:18.281Z,84.84
2017-02-13T04:07:18.808Z,84.31
2017-02-13T04:08:19.347Z,84.79
2017-02-13T04:09:19.874Z,84.89
2017-02-13T04:10:20.416Z,85.32
2017-02-13T04:11:20.939Z,85.16
2017-02-13T04:12:21.467Z,85.56
2017-02-13T04:13:22.148Z,85.53
2017-02-13T04:14:22.526Z,83.99
2017-02-13T04:15:23.052Z,86.41
2017-02-13T04:16:23.583Z,86.36
2017-02-13T04:18:24.790Z,86.01
2017-02-13T04:19:25.209Z,85.75
2017-02-13T04:20:25.854Z,86.84
2017-02-13T04:21:26.245Z,87.48
2017-02-13T04:22:26.769Z,87.72
2017-02-13T04:23:27.303Z,87.88
2017-02-13T04:24:27.830Z,87.82
2017-02-13T04:25:28.373Z,89.24
2017-02-13T04:26:28.895Z,88.20
2017-02-13T04:27:29.433Z,89.64
2017-02-13T04:28:29.967Z,88.89
2017-02-13T04:29:30.499Z,87.88
2017-02-13T04:30:31.040Z,87.72
2017-02-13T04:31:31.723Z,87.32
2017-02-13T04:32:32.260Z,88.97
2017-02-13T04:33:32.630Z,88.92
2017-02-13T04:34:33.158Z,89.24
2017-02-13T04:35:33.688Z,88.97
2017-02-13T04:36:34.222Z,89.59
2017-02-13T04:37:34.758Z,89.08
2017-02-13T04:38:35.285Z,89.75
2017-02-13T04:39:35.829Z,89.67
2017-02-13T04:40:36.351Z,89.80
2017-02-13T04:41:37.023Z,89.86
2017-02-13T04:42:37.407Z,89.48
2017-02-13T04:43:37.935Z,89.99
2017-02-13T04:44:38.464Z,91.09
2017-02-13T04:45:38.996Z,90.02
2017-02-13T04:46:39.526Z,90.20
2017-02-13T04:47:40.093Z,90.34
2017-02-13T04:48:40.735Z,90.58
2017-02-13T04:49:41.129Z,90.05
2017-02-13T04:50:41.651Z,91.47
2017-02-13T04:51:42.181Z,91.25
2017-02-13T04:52:42.716Z,92.32
2017-02-13T04:53:43.241Z,92.05
2017-02-13T04:54:43.773Z,91.30
2017-02-13T04:55:44.341Z,91.63
2017-02-13T04:56:44.839Z,91.49
2017-02-13T04:57:45.366Z,92.03
2017-02-13T04:58:45.894Z,91.84
2017-02-13T04:59:46.425Z,91.60
2017-02-13T05:00:46.957Z,91.38
2017-02-13T05:01:47.635Z,90.66
2017-02-13T05:02:48.014Z,91.63
2017-02-13T05:03:48.548Z,91.36
2017-02-13T05:04:49.076Z,90.69
2017-02-13T05:05:49.639Z,90.53
2017-02-13T05:06:50.139Z,90.42
2017-02-13T05:07:50.816Z,90.74
2017-02-13T05:08:51.200Z,90.80
2017-02-13T05:09:51.886Z,90.47
2017-02-13T05:10:52.424Z,89.29
2017-02-13T05:11:53.111Z,88.97
2017-02-13T05:12:53.351Z,89.06
2017-02-13T05:13:53.882Z,89.48
2017-02-13T05:14:54.411Z,89.32
2017-02-13T05:15:54.943Z,90.80
2017-02-13T05:16:55.472Z,91.44
2017-02-13T05:17:56.003Z,90.98
2017-02-13T05:18:56.542Z,91.03
2017-02-13T05:19:57.070Z,90.66
2017-02-13T05:20:57.742Z,90.31
2017-02-13T05:21:58.125Z,90.13
2017-02-13T05:22:58.656Z,90.42
2017-02-13T05:23:59.336Z,90.80
2017-02-13T05:24:59.720Z,91.41
2017-02-13T05:26:00.250Z,91.28
2017-02-13T05:27:00.784Z,90.69
2017-02-13T05:28:01.309Z,90.47
2017-02-13T05:29:01.841Z,90.82
2017-02-13T05:30:02.381Z,89.54
2017-02-13T05:31:02.902Z,89.00
2017-02-13T05:32:03.607Z,87.85
2017-02-13T05:33:04.111Z,87.45
2017-02-13T05:34:04.493Z,86.46
2017-02-13T05:35:05.045Z,85.38
2017-02-13T05:36:05.556Z,84.17
2017-02-13T05:37:06.088Z,83.38
2017-02-13T05:38:06.769Z,83.54
2017-02-13T05:39:07.151Z,83.01
2017-02-13T05:40:07.832Z,82.19
2017-02-13T05:41:08.212Z,81.87
2017-02-13T05:42:08.737Z,81.56
2017-02-13T05:43:09.269Z,81.05
2017-02-13T05:44:09.796Z,80.81
2017-02-13T05:45:10.335Z,80.73
2017-02-13T05:46:10.863Z,80.47
2017-02-13T05:47:11.395Z,80.15
2017-02-13T05:48:11.925Z,80.02
2017-02-13T05:49:12.460Z,79.75
2017-02-13T05:50:12.985Z,79.79
2017-02-13T05:51:13.669Z,79.75
2017-02-13T05:52:14.205Z,79.83
2017-02-13T05:53:14.591Z,80.05
2017-02-13T05:54:15.124Z,80.29
2017-02-13T05:55:15.659Z,80.36
2017-02-13T05:56:16.190Z,80.47
2017-02-13T05:57:16.718Z,80.21
2017-02-13T05:58:17.403Z,80.65
2017-02-13T05:59:17.932Z,80.52
2017-02-13T06:00:18.319Z,81.13
2017-02-13T06:01:18.851Z,81.40
2017-02-13T06:02:19.382Z,81.16
2017-02-13T06:03:19.913Z,81.26
2017-02-13T06:04:20.445Z,81.60
2017-02-13T06:05:20.976Z,81.52
2017-02-13T06:06:21.502Z,81.52
2017-02-13T06:07:22.036Z,81.50
2017-02-13T06:08:22.717Z,81.40
2017-02-13T06:09:23.098Z,81.45
2017-02-13T06:10:23.779Z,81.10
2017-02-13T06:11:24.166Z,81.26
2017-02-13T06:12:24.845Z,81.26
2017-02-13T06:13:25.255Z,81.05
2017-02-13T06:14:25.898Z,80.79
2017-02-13T06:15:26.428Z,80.63
2017-02-13T06:16:26.815Z,80.55
2017-02-13T06:17:27.347Z,80.18
2017-02-13T06:18:28.029Z,79.94
2017-02-13T06:19:28.412Z,79.68
2017-02-13T06:20:29.092Z,79.41
2017-02-13T06:21:29.475Z,79.13
2017-02-13T06:22:30.156Z,79.07
2017-02-13T06:23:30.536Z,78.67
2017-02-13T06:24:31.064Z,78.67
2017-02-13T06:25:31.592Z,78.49
2017-02-13T06:26:32.274Z,78.44
2017-02-13T06:27:32.655Z,78.54
2017-02-13T06:28:33.212Z,78.49
2017-02-13T06:29:33.862Z,78.41
2017-02-13T06:30:34.395Z,78.28
2017-02-13T06:31:34.781Z,78.23
2017-02-13T06:32:35.461Z,78.17
2017-02-13T06:33:35.991Z,78.09
2017-02-13T06:34:36.386Z,78.31
2017-02-13T06:35:36.918Z,78.20
2017-02-13T06:36:37.454Z,77.99
2017-02-13T06:37:37.986Z,77.94
2017-02-13T06:38:38.669Z,77.86
2017-02-13T06:39:39.047Z,77.75
2017-02-13T06:40:39.579Z,78.12
2017-02-13T06:41:40.113Z,77.97
2017-02-13T06:42:40.640Z,77.73
2017-02-13T06:43:41.175Z,77.70
2017-02-13T06:44:41.708Z,77.89
2017-02-13T06:45:42.236Z,77.99
2017-02-13T06:46:42.766Z,78.01
2017-02-13T06:47:43.304Z,77.99
2017-02-13T06:48:43.831Z,77.78
2017-02-13T06:49:44.368Z,77.33
2017-02-13T06:50:44.893Z,77.31
2017-02-13T06:51:45.451Z,77.31
2017-02-13T06:52:45.957Z,77.33
2017-02-13T06:53:46.636Z,77.31
2017-02-13T06:54:47.018Z,76.94
2017-02-13T06:55:47.551Z,76.83
2017-02-13T06:56:48.082Z,76.65
2017-02-13T06:57:48.619Z,76.31
2017-02-13T06:58:49.151Z,76.20
2017-02-13T06:59:49.684Z,76.26
2017-02-13T07:00:50.360Z,75.94
2017-02-13T07:01:50.744Z,75.86
2017-02-13T07:02:51.272Z,75.84
2017-02-13T07:03:51.949Z,75.65
2017-02-13T07:04:52.335Z,75.70
2017-02-13T07:05:52.868Z,75.57
2017-02-13T07:06:53.395Z,75.44
2017-02-13T07:07:53.926Z,75.41
2017-02-13T07:08:54.456Z,75.02
2017-02-13T07:09:54.985Z,75.23
2017-02-13T07:10:55.522Z,75.07
2017-02-13T07:11:56.204Z,74.94
2017-02-13T07:12:56.576Z,74.89
2017-02-13T07:13:57.254Z,74.97
2017-02-13T07:14:57.786Z,75.07
2017-02-13T07:15:58.173Z,74.89
2017-02-13T07:16:58.709Z,74.81
2017-02-13T07:17:59.244Z,74.84
2017-02-13T07:18:59.772Z,74.50
2017-02-13T07:20:00.308Z,74.76
2017-02-13T07:21:00.986Z,74.76
2017-02-13T07:22:01.518Z,74.87
2017-02-13T07:23:01.901Z,74.55
2017-02-13T07:24:02.435Z,74.40
2017-02-13T07:25:02.966Z,74.50
2017-02-13T07:26:03.495Z,74.29
2017-02-13T07:27:04.025Z,74.52
2017-02-13T07:28:04.704Z,73.89
2017-02-13T07:29:05.089Z,73.95
2017-02-13T07:30:05.620Z,73.69
2017-02-13T07:31:06.150Z,73.01
2017-02-13T07:33:07.363Z,72.98
2017-02-13T07:34:07.738Z,73.30
2017-02-13T07:35:08.421Z,72.53
2017-02-13T07:36:08.804Z,72.30
2017-02-13T07:37:09.338Z,72.12
2017-02-13T07:38:09.868Z,72.09
2017-02-13T07:39:10.405Z,72.01
2017-02-13T07:40:10.932Z,71.67
2017-02-13T07:41:11.464Z,71.54
2017-02-13T07:42:11.993Z,71.39
2017-02-13T07:43:12.529Z,71.23
2017-02-13T07:44:13.064Z,71.26
2017-02-13T07:45:13.586Z,70.97
2017-02-13T07:46:14.122Z,70.84
2017-02-13T07:47:14.653Z,70.68
2017-02-13T07:48:15.326Z,70.27
2017-02-13T07:49:15.705Z,70.35
2017-02-13T07:50:16.237Z,70.14
2017-02-13T07:51:16.767Z,69.80
2017-02-13T07:52:17.476Z,69.62
2017-02-13T07:53:17.836Z,69.54
2017-02-13T07:54:18.361Z,69.49
2017-02-13T07:55:18.916Z,69.34
2017-02-13T07:56:19.425Z,69.05
2017-02-13T07:58:20.634Z,68.45
2017-02-13T07:59:21.173Z,67.93
2017-02-13T08:00:21.558Z,68.19
2017-02-13T08:01:22.089Z,68.45
2017-02-13T08:02:22.623Z,68.06
2017-02-13T08:03:23.153Z,68.40
2017-02-13T08:04:23.685Z,68.14
2017-02-13T08:05:24.211Z,68.01
2017-02-13T08:06:24.742Z,67.80
2017-02-13T08:07:25.272Z,67.64
2017-02-13T08:08:25.803Z,67.39
2017-02-13T08:09:26.483Z,67.31
2017-02-13T08:10:26.868Z,67.20
2017-02-13T08:11:27.548Z,67.20
2017-02-13T08:12:27.930Z,66.74
2017-02-13T08:13:28.460Z,67.05
2017-02-13T08:14:28.988Z,66.61
2017-02-13T08:15:29.520Z,65.99
2017-02-13T08:16:30.053Z,66.58
2017-02-13T08:17:30.731Z,66.79
2017-02-13T08:18:31.110Z,66.30
2017-02-13T08:19:31.639Z,66.20
2017-02-13T08:20:32.173Z,65.50
2017-02-13T08:21:32.702Z,65.70
2017-02-13T08:22:33.381Z,65.39
2017-02-13T08:23:33.763Z,65.01
2017-02-13T08:24:34.299Z,65.26
2017-02-13T08:25:34.828Z,65.18
2017-02-13T08:26:35.362Z,64.80
2017-02-13T08:27:36.039Z,64.52
2017-02-13T08:28:37.171Z,64.00
2017-02-13T08:29:37.102Z,63.43
2017-02-13T08:30:37.489Z,64.75
2017-02-13T08:31:38.167Z,63.87
2017-02-13T08:32:38.690Z,63.98
2017-02-13T08:33:39.075Z,64.18
2017-02-13T08:34:39.611Z,63.79
2017-02-13T08:35:40.291Z,63.69
2017-02-13T08:36:40.821Z,63.26
2017-02-13T08:37:41.201Z,63.28
2017-02-13T08:38:41.730Z,63.38
2017-02-13T08:39:42.415Z,63.49
2017-02-13T08:40:42.797Z,63.69
2017-02-13T08:41:43.484Z,63.41
2017-02-13T08:42:43.870Z,63.18
2017-02-13T08:43:44.401Z,62.30
2017-02-13T08:44:44.931Z,62.56
2017-02-13T08:45:45.461Z,61.40
2017-02-13T08:46:45.996Z,61.99
2017-02-13T08:47:46.674Z,62.18
2017-02-13T08:48:47.054Z,61.14
2017-02-13T08:49:47.583Z,61.04
2017-02-13T08:50:48.118Z,61.38
2017-02-13T08:51:48.824Z,60.43
2017-02-13T08:52:49.179Z,60.76
2017-02-13T08:53:49.710Z,60.81
2017-02-13T08:54:50.384Z,60.25
2017-02-13T08:55:50.767Z,60.17
2017-02-13T08:56:51.302Z,59.50
2017-02-13T08:57:51.832Z,60.43
2017-02-13T08:58:52.361Z,59.48
2017-02-13T08:59:52.894Z,59.73
2017-02-13T09:00:53.447Z,59.84
2017-02-13T09:01:53.956Z,59.81
2017-02-13T09:03:55.015Z,60.14
2017-02-13T09:04:55.554Z,59.84
2017-02-13T09:05:56.078Z,59.22
2017-02-13T09:06:56.612Z,60.17
2017-02-13T09:07:57.141Z,59.22
2017-02-13T09:08:57.675Z,59.35
2017-02-13T09:09:58.503Z,58.76
2017-02-13T09:10:58.735Z,58.25
2017-02-13T09:11:59.276Z,58.38
2017-02-13T09:12:59.800Z,57.84
2017-02-13T09:14:00.387Z,58.33
2017-02-13T09:15:00.869Z,58.94
2017-02-13T09:16:01.409Z,58.04
2017-02-13T09:17:01.943Z,56.85
2017-02-13T09:18:02.478Z,57.36
2017-02-13T09:19:03.161Z,57.02
2017-02-13T09:20:03.700Z,57.56
2017-02-13T09:21:04.087Z,57.59
2017-02-13T09:22:04.636Z,57.89
2017-02-13T09:23:05.167Z,57.89
2017-02-13T09:24:05.709Z,57.46
2017-02-13T09:25:06.246Z,57.54
2017-02-13T09:26:06.810Z,57.97
2017-02-13T09:27:07.311Z,57.00
2017-02-13T09:28:07.837Z,56.67
2017-02-13T09:29:08.370Z,57.21
2017-02-13T09:30:08.898Z,57.54
2017-02-13T09:31:09.433Z,56.74
2017-02-13T09:32:10.112Z,56.59
2017-02-13T09:33:10.641Z,55.98
2017-02-13T09:34:11.054Z,56.41
2017-02-13T09:35:11.556Z,56.31
2017-02-13T09:36:12.087Z,56.18
2017-02-13T09:37:12.612Z,56.31
2017-02-13T09:38:13.138Z,56.82
2017-02-13T09:39:13.669Z,56.82
2017-02-13T09:40:14.197Z,56.18
2017-02-13T09:41:14.731Z,56.59
2017-02-13T09:42:15.264Z,56.82
2017-02-13T09:43:15.798Z,56.80
2017-02-13T09:44:16.334Z,56.93
2017-02-13T09:45:16.861Z,56.26
2017-02-13T09:46:17.386Z,56.33
2017-02-13T09:47:17.916Z,56.26
2017-02-13T09:48:18.611Z,56.74
2017-02-13T09:49:19.000Z,55.80
2017-02-13T09:50:19.515Z,56.41
2017-02-13T09:51:20.042Z,55.24
2017-02-13T09:52:20.721Z,55.02
2017-02-13T09:53:21.101Z,54.43
2017-02-13T09:54:21.638Z,54.89
2017-02-13T09:55:22.168Z,54.99
2017-02-13T09:56:22.706Z,54.37
2017-02-13T09:57:23.229Z,54.02
2017-02-13T09:59:24.290Z,53.97
2017-02-13T10:00:24.827Z,54.04
2017-02-13T10:01:25.355Z,54.48
2017-02-13T10:02:25.881Z,54.71
2017-02-13T10:03:26.415Z,54.86
2017-02-13T10:04:26.944Z,55.39
2017-02-13T10:05:27.481Z,55.47
2017-02-13T10:06:28.020Z,55.24
2017-02-13T10:07:28.554Z,54.94
2017-02-13T10:08:29.109Z,55.39
2017-02-13T10:09:29.764Z,55.32
2017-02-13T10:10:30.150Z,54.86
2017-02-13T10:11:30.679Z,54.96
2017-02-13T10:12:31.210Z,54.33
2017-02-13T10:13:31.742Z,54.41
2017-02-13T10:14:32.421Z,53.11
2017-02-13T10:15:32.948Z,53.64
2017-02-13T10:16:33.482Z,54.04
2017-02-13T10:17:33.867Z,53.01
2017-02-13T10:18:34.389Z,53.06
2017-02-13T10:19:34.925Z,52.55
2017-02-13T10:20:35.603Z,52.12
2017-02-13T10:21:35.980Z,51.99
2017-02-13T10:22:36.506Z,52.07
2017-02-13T10:23:37.042Z,52.70
2017-02-13T10:24:37.571Z,52.27
2017-02-13T10:25:38.111Z,51.71
2017-02-13T10:26:38.806Z,52.17
2017-02-13T10:27:39.169Z,51.99
2017-02-13T10:28:39.697Z,51.71
2017-02-13T10:29:40.227Z,51.71
2017-02-13T10:30:40.906Z,51.79
2017-02-13T10:31:41.419Z,51.11
2017-02-13T10:32:41.811Z,51.31
2017-02-13T10:33:42.320Z,51.64
2017-02-13T10:34:42.855Z,51.49
2017-02-13T10:35:43.360Z,51.46
2017-02-13T10:36:43.889Z,49.92
2017-02-13T10:37:44.415Z,49.60
2017-02-13T10:38:44.957Z,50.58
2017-02-13T10:39:45.464Z,50.80
2017-02-13T10:40:46.007Z,49.85
2017-02-13T10:41:46.512Z,50.63
2017-02-13T10:42:47.023Z,50.35
2017-02-13T10:43:47.550Z,50.10
2017-02-13T10:44:48.086Z,50.02
2017-02-13T10:45:48.597Z,49.49
2017-02-13T10:46:49.129Z,50.33
2017-02-13T10:47:49.654Z,50.05
2017-02-13T10:48:50.196Z,49.02
2017-02-13T10:49:50.731Z,48.44
2017-02-13T10:50:51.234Z,49.32
2017-02-13T10:51:51.761Z,48.99
2017-02-13T10:52:52.291Z,47.63
2017-02-13T10:53:52.806Z,48.36
2017-02-13T10:54:53.342Z,49.37
2017-02-13T10:55:53.852Z,48.19
2017-02-13T10:56:54.388Z,48.08
2017-02-13T10:57:54.907Z,48.08
2017-02-13T10:58:55.427Z,48.19
2017-02-13T10:59:55.970Z,48.31
2017-02-13T11:00:56.478Z,48.99
2017-02-13T11:01:56.997Z,48.51
2017-02-13T11:02:57.538Z,48.97
2017-02-13T11:03:58.180Z,48.34
2017-02-13T11:04:58.569Z,48.34
2017-02-13T11:05:59.259Z,48.54
2017-02-13T11:06:59.623Z,48.11
2017-02-13T11:08:00.148Z,47.61
2017-02-13T11:09:00.661Z,48.23
2017-02-13T11:10:01.198Z,47.91
2017-02-13T11:11:01.722Z,48.59
2017-02-13T11:12:02.229Z,48.03
2017-02-13T11:13:02.755Z,47.91
2017-02-13T11:14:03.278Z,48.72
2017-02-13T11:15:03.805Z,47.36
2017-02-13T11:16:04.462Z,47.33
2017-02-13T11:17:04.849Z,47.23
2017-02-13T11:18:05.389Z,47.31
2017-02-13T11:19:05.888Z,46.98
2017-02-13T11:20:06.435Z,46.95
2017-02-13T11:21:06.938Z,46.88
2017-02-13T11:22:07.462Z,46.68
2017-02-13T11:23:07.983Z,46.43
2017-02-13T11:24:08.517Z,45.80
2017-02-13T11:25:09.032Z,46.38
2017-02-13T11:26:09.557Z,45.55
2017-02-13T11:27:10.226Z,44.80
2017-02-13T11:28:10.604Z,46.10
2017-02-13T11:29:11.139Z,46.58
2017-02-13T11:30:11.680Z,46.65
2017-02-13T11:31:12.188Z,45.82
2017-02-13T11:32:12.736Z,45.90
2017-02-13T11:33:13.254Z,46.90
2017-02-13T11:34:13.799Z,45.62
2017-02-13T11:35:14.308Z,45.18
2017-02-13T11:36:14.816Z,45.15
2017-02-13T11:37:15.348Z,45.98
2017-02-13T11:38:15.866Z,45.60
2017-02-13T11:39:16.421Z,45.30
2017-02-13T11:40:16.907Z,46.07
2017-02-13T11:41:17.452Z,45.57
2017-02-13T11:42:17.955Z,44.43
2017-02-13T11:43:18.623Z,44.39
2017-02-13T11:44:19.002Z,44.87
2017-02-13T11:45:19.816Z,44.90
2017-02-13T11:46:20.058Z,45.22
2017-02-13T11:47:20.589Z,44.82
2017-02-13T11:48:21.091Z,46.20
2017-02-13T11:49:21.649Z,45.98
2017-02-13T11:50:22.143Z,45.12
2017-02-13T11:51:22.664Z,45.02
2017-02-13T11:52:23.191Z,43.92
2017-02-13T11:53:23.722Z,43.97
2017-02-13T11:54:24.277Z,44.43
2017-02-13T11:55:24.765Z,44.50
2017-02-13T11:56:25.310Z,44.45
2017-02-13T11:57:25.816Z,43.92
2017-02-13T11:58:26.354Z,44.87
2017-02-13T11:59:26.857Z,45.25
2017-02-13T12:00:27.378Z,46.25
2017-02-13T12:01:27.909Z,45.65
2017-02-13T12:02:28.425Z,43.67
2017-02-13T12:03:28.944Z,43.52
2017-02-13T12:04:29.472Z,44.22
2017-02-13T12:05:29.999Z,44.05
2017-02-13T12:06:30.516Z,43.90
2017-02-13T12:07:31.038Z,44.32
2017-02-13T12:08:31.567Z,43.65
2017-02-13T12:09:32.094Z,43.13
2017-02-13T12:10:32.615Z,43.05
2017-02-13T12:11:33.150Z,43.90
2017-02-13T12:12:33.812Z,43.47
2017-02-13T12:13:34.210Z,43.60
2017-02-13T12:14:34.728Z,42.80
2017-02-13T12:15:35.294Z,43.20
2017-02-13T12:16:35.785Z,43.02
2017-02-13T12:17:36.302Z,43.27
2017-02-13T12:18:36.867Z,43.25
2017-02-13T12:19:37.367Z,44.35
2017-02-13T12:20:37.910Z,43.08
2017-02-13T12:21:38.413Z,43.57
2017-02-13T12:22:38.932Z,42.83
2017-02-13T12:23:39.463Z,43.38
2017-02-13T12:24:40.120Z,43.42
2017-02-13T12:25:40.643Z,43.47
2017-02-13T12:26:41.044Z,43.50
2017-02-13T12:27:41.543Z,42.65
2017-02-13T12:28:42.074Z,42.80
2017-02-13T12:29:42.592Z,43.33
2017-02-13T12:30:43.135Z,44.68
2017-02-13T12:31:43.645Z,43.72
2017-02-13T12:32:44.163Z,43.00
2017-02-13T12:33:44.680Z,42.65
2017-02-13T12:34:45.211Z,43.40
2017-02-13T12:35:45.730Z,43.52
2017-02-13T12:36:46.257Z,42.67
2017-02-13T12:37:46.797Z,42.70
2017-02-13T12:38:47.310Z,43.38
2017-02-13T12:39:47.841Z,43.20
2017-02-13T12:40:48.371Z,42.65
2017-02-13T12:41:48.890Z,42.58
2017-02-13T12:42:49.403Z,43.60
2017-02-13T12:43:49.917Z,44.02
2017-02-13T12:44:50.471Z,43.30
2017-02-13T12:45:51.119Z,43.80
2017-02-13T12:46:51.493Z,43.80
2017-02-13T12:47:52.035Z,43.82
2017-02-13T12:48:52.685Z,43.27
2017-02-13T12:49:53.209Z,43.10
2017-02-13T12:50:53.589Z,43.33
2017-02-13T12:51:54.120Z,42.08
2017-02-13T12:52:54.659Z,43.05
2017-02-13T12:53:55.160Z,41.95
2017-02-13T12:54:55.831Z,41.78
2017-02-13T12:55:56.213Z,41.58
2017-02-13T12:56:56.765Z,41.33
2017-02-13T12:57:57.278Z,39.94
2017-02-13T12:58:57.796Z,40.43
2017-02-13T12:59:58.322Z,40.11
2017-02-13T13:00:58.849Z,40.51
2017-02-13T13:01:59.525Z,41.85
2017-02-13T13:03:00.212Z,41.56
2017-02-13T13:04:00.425Z,42.20